Home PIREPS Pireps

Flight BEL7202

  • Submitted By: Maarten Wils
  • Departure Airport: Rhein-Main-Flughafen Frankfurt am Main (EDDF)
  • Arrival Airport: Abuja (DNAA)
  • Aircraft: A330-322 (OO-SFW)
  • Flight Time: 05.44
  • Date Submitted: 28/03/2015
  • Status: Accepted
Flight Details
Gross Revenue:
(231 load / € 0.00 per unit
€ 0.00
Fuel Cost:
(57933 fuel used @ 5.1 / unit)
€ 295,458.30

Additional Log Information:

View Log

Aircraft Used in flight is PMDG747-400 Lufthansa
07:57 Brakes are On
07:57 Brakes are Released
07:59 Brakes are On
08:00 Brakes are Released
08:07 You Took off @ 171 Knots and Flaps at Position 4
Departure Weather
EDDF 280450Z 20003KT CAVOK 03/00 Q1023 NOSIGrn
08:07 Landing Gear Up @ 175 Knots and 460 Feet
08:09 Below 10000 feet you are not allowed to go over 250 knots
08:10 Below Fl100 you need to turn on the landing lights
08:10 Below FL100 you need to turn on the landing lights
08:11 Above FL100 you need to switch of the landing lights
13:11 Paused
16:55 Unpaused
17:07 Paused
17:47 Unpaused
17:48 Above FL100 you need to switch of the landing lights
17:52 Landing Gear Down @ 231 Knots and 4870 Feet
17:57 You Landed @ 144 Knots and with -300 Vertical Speed
Arrival Weather
DNAA 281400Z 24006KT 220V280 9999 FEW012 31/19 Q1011 NOSIGrn
18:04 Brakes are On
18:04 Brussels Bel-Track1.0.0.8

Route Map

Corporate About Us Our Team Vacancies Information Fleet Route Network Rules and Regulations Operations Flight Schedules Event Center Tours Partners IVAO Vatsim Acars dev FSCB

fb Users Online Belgium Martin Witters, Belgium Marc Van Loo,
3 Pilot(s) and 114 Guest(s) Online
CMS by phpVMS - Design by Crazycreatives.com - Copyright © 2018 - Brussels Airlines Virtual